Time;durP1;ratioP1;P1;durP2;ratioP2;P2;SDS_P1;SDS_P2;PMS_P1;PMS_P2;Temp;Humidity;BMP_temperature;BMP_pressure;BME280_temperature;BME280_humidity;BME280_pressure;Samples;Min_cycle;Max_cycle;Signal;HPM_P1;HPM_P2
2021/12/25 00:00:10;;;;;;;18.70;14.55;;;;;;;4.47;68.90;100765.50;5199398;28;20541;-43
2021/12/25 00:02:43;;;;;;;20.42;15.93;;;;;;;4.43;68.74;100764.06;5199055;28;20463;-45
2021/12/25 00:05:16;;;;;;;23.50;14.73;;;;;;;4.40;68.78;100764.28;5197456;28;20508;-48
2021/12/25 00:08:10;;;;;;;22.45;16.95;;;;;;;4.42;68.95;100767.59;5195728;28;20511;-44
2021/12/25 00:10:44;;;;;;;21.55;14.60;;;;;;;4.41;68.70;100773.78;5194344;28;20482;-43
2021/12/25 00:13:18;;;;;;;22.90;17.20;;;;;;;4.36;68.72;100773.28;5176460;28;20496;-44
2021/12/25 00:15:52;;;;;;;21.25;17.42;;;;;;;4.36;68.80;100768.03;5199115;28;20909;-44
2021/12/25 00:18:25;;;;;;;23.52;16.75;;;;;;;4.34;69.01;100769.97;5194744;28;20498;-43
2021/12/25 00:20:57;;;;;;;23.93;18.40;;;;;;;4.32;68.81;100777.91;5197051;28;20431;-44
2021/12/25 00:23:29;;;;;;;25.25;16.75;;;;;;;4.29;69.01;100766.84;5186812;28;20412;-43
2021/12/25 00:26:08;;;;;;;21.30;16.80;;;;;;;4.24;68.90;100776.78;5198154;28;20420;-42
2021/12/25 00:28:58;;;;;;;25.95;18.40;;;;;;;4.20;68.97;100777.94;5195769;28;20916;-45
2021/12/25 00:31:46;;;;;;;24.17;17.75;;;;;;;4.19;69.10;100781.53;5204942;28;20403;-42
2021/12/25 00:34:22;;;;;;;22.63;18.27;;;;;;;4.27;68.73;100790.44;5191859;28;20428;-43
2021/12/25 00:36:54;;;;;;;26.40;18.77;;;;;;;4.28;68.90;100796.53;5199989;28;20436;-45
2021/12/25 00:39:29;;;;;;;23.83;18.67;;;;;;;4.26;68.88;100787.97;5198797;28;20488;-43
2021/12/25 00:42:05;;;;;;;25.30;18.13;;;;;;;4.26;68.76;100795.81;5198723;28;20416;-43
2021/12/25 00:44:38;;;;;;;26.52;20.75;;;;;;;4.27;68.85;100790.44;5201435;28;20433;-43
2021/12/25 00:47:10;;;;;;;27.70;21.38;;;;;;;4.27;68.81;100789.63;5195751;28;20962;-46
2021/12/25 00:49:42;;;;;;;29.27;20.52;;;;;;;4.31;68.68;100785.88;5193925;28;20406;-44
2021/12/25 00:52:15;;;;;;;25.83;19.80;;;;;;;4.33;68.69;100791.78;5197043;28;21065;-45
2021/12/25 00:54:47;;;;;;;26.73;20.20;;;;;;;4.26;68.73;100780.13;5193483;28;20446;-43
2021/12/25 00:57:21;;;;;;;31.27;22.15;;;;;;;4.29;68.79;100787.75;5194805;28;20425;-43
2021/12/25 00:59:53;;;;;;;31.10;21.60;;;;;;;4.28;68.71;100788.69;5194364;28;20433;-44
2021/12/25 01:02:26;;;;;;;29.13;22.55;;;;;;;4.24;68.79;100784.63;5203438;28;20429;-43
2021/12/25 01:04:58;;;;;;;28.08;20.00;;;;;;;4.32;68.58;100792.75;5207890;28;20713;-43
2021/12/25 01:07:31;;;;;;;25.23;18.88;;;;;;;4.22;68.72;100781.31;5196160;28;20473;-43
2021/12/25 01:10:07;;;;;;;30.85;22.17;;;;;;;4.21;68.64;100784.84;5201346;28;20885;-44
2021/12/25 01:12:53;;;;;;;31.77;21.45;;;;;;;4.23;68.70;100793.41;5200496;28;20417;-44
2021/12/25 01:15:34;;;;;;;30.55;20.25;;;;;;;4.19;68.76;100791.97;5210840;28;20417;-44
2021/12/25 01:18:55;;;;;;;30.48;20.80;;;;;;;4.22;68.81;100797.81;5200222;28;20477;-43
2021/12/25 01:24:32;;;;;;;29.90;20.52;;;;;;;4.20;68.64;100794.47;5200903;28;20549;-43
2021/12/25 01:29:58;;;;;;;32.90;21.55;;;;;;;4.18;68.69;100785.06;5173722;28;20417;-44
2021/12/25 01:35:40;;;;;;;34.20;20.73;;;;;;;4.14;68.61;100797.50;5202109;28;20425;-44
2021/12/25 01:38:25;;;;;;;32.60;22.52;;;;;;;3.94;68.68;100783.25;5194809;28;20410;-44
2021/12/25 01:41:10;;;;;;;32.47;21.15;;;;;;;3.95;68.76;100797.16;5199339;28;20512;-44
2021/12/25 01:49:24;;;;;;;36.00;22.65;;;;;;;3.81;68.71;100808.56;5189546;28;20421;-44
2021/12/25 01:51:57;;;;;;;30.10;21.60;;;;;;;3.84;68.77;100803.13;5201071;28;20775;-48
2021/12/25 01:54:29;;;;;;;34.72;21.13;;;;;;;3.84;68.60;100803.13;5198958;28;20839;-43
2021/12/25 01:57:02;;;;;;;32.72;22.75;;;;;;;3.83;69.00;100811.91;5205327;28;20412;-43
2021/12/25 01:59:35;;;;;;;36.50;24.25;;;;;;;3.75;68.72;100788.09;5195950;28;20782;-44
2021/12/25 02:02:08;;;;;;;31.80;21.60;;;;;;;3.79;68.59;100797.41;5194243;28;20775;-43
2021/12/25 02:04:41;;;;;;;32.78;21.08;;;;;;;3.68;68.76;100796.34;5205444;28;20907;-47
2021/12/25 02:07:14;;;;;;;36.70;24.48;;;;;;;3.72;68.97;100799.59;5200325;28;20441;-44
2021/12/25 02:09:48;;;;;;;35.13;22.35;;;;;;;3.75;68.90;100803.75;5199614;28;20415;-43
2021/12/25 02:12:20;;;;;;;35.85;23.15;;;;;;;3.73;68.73;100811.72;5194535;28;20692;-42
2021/12/25 02:14:54;;;;;;;33.30;22.38;;;;;;;3.67;68.73;100799.91;5196101;28;20494;-44
2021/12/25 02:17:45;;;;;;;34.42;21.30;;;;;;;3.69;68.66;100795.44;5197540;28;20503;-44
2021/12/25 02:20:26;;;;;;;32.95;23.15;;;;;;;3.67;68.64;100807.75;5201525;28;20571;-44
2021/12/25 02:23:03;;;;;;;32.45;21.83;;;;;;;3.69;68.82;100811.09;5199897;28;20414;-43
2021/12/25 02:25:37;;;;;;;30.65;21.95;;;;;;;3.64;68.62;100812.34;5199870;28;20459;-43
2021/12/25 02:28:11;;;;;;;34.72;23.15;;;;;;;3.59;68.67;100817.91;5204611;28;20500;-43
2021/12/25 02:30:46;;;;;;;30.55;22.52;;;;;;;3.65;68.57;100820.09;5199429;28;20403;-42
2021/12/25 02:33:18;;;;;;;30.42;20.85;;;;;;;3.67;68.64;100812.13;5197347;28;20685;-43
2021/12/25 02:35:59;;;;;;;26.23;19.42;;;;;;;3.65;68.47;100821.84;5199391;28;20423;-42
2021/12/25 02:38:32;;;;;;;29.17;18.48;;;;;;;3.10;68.57;100735.09;5192826;28;20399;-42
2021/12/25 02:41:06;;;;;;;27.15;17.88;;;;;;;3.51;68.56;100812.38;5199515;28;21508;-44
2021/12/25 02:43:39;;;;;;;26.20;16.83;;;;;;;3.48;68.64;100823.00;5196828;28;20755;-43
2021/12/25 02:46:12;;;;;;;24.38;17.15;;;;;;;3.45;68.85;100823.22;5195494;28;20768;-44
2021/12/25 02:48:45;;;;;;;29.20;18.77;;;;;;;3.22;68.84;100802.13;5199992;28;20498;-47
2021/12/25 02:51:18;;;;;;;29.80;18.77;;;;;;;3.30;68.88;100819.03;5194220;28;20421;-44
2021/12/25 02:53:51;;;;;;;24.65;17.05;;;;;;;3.28;68.96;100826.94;5190945;28;22530;-46
2021/12/25 02:56:23;;;;;;;27.05;16.92;;;;;;;2.89;68.92;100757.41;5193481;28;20842;-42
2021/12/25 02:58:55;;;;;;;28.98;18.17;;;;;;;3.17;68.88;100814.63;5194139;28;20806;-43
2021/12/25 03:01:28;;;;;;;27.00;17.50;;;;;;;3.13;68.89;100812.34;5188897;28;20759;-44
2021/12/25 03:04:00;;;;;;;31.40;19.50;;;;;;;3.04;68.88;100805.97;5192554;28;20826;-44
2021/12/25 03:06:38;;;;;;;31.98;19.77;;;;;;;3.02;69.21;100810.44;5196119;28;20824;-44
2021/12/25 03:09:10;;;;;;;33.47;19.02;;;;;;;3.00;69.16;100809.69;5194169;28;20747;-45
2021/12/25 03:11:42;;;;;;;27.65;18.00;;;;;;;3.00;68.89;100804.47;5192316;28;20445;-44
2021/12/25 03:14:31;;;;;;;31.67;20.10;;;;;;;2.97;68.88;100812.50;5190358;28;20852;-43
2021/12/25 03:17:05;;;;;;;31.05;19.05;;;;;;;2.97;68.86;100808.16;5200177;28;20407;-44
2021/12/25 03:19:37;;;;;;;24.98;16.42;;;;;;;3.00;68.80;100817.53;5192788;28;20753;-45
2021/12/25 03:22:15;;;;;;;26.95;16.23;;;;;;;3.01;68.74;100819.22;5194927;28;26052;-44
2021/12/25 03:24:48;;;;;;;25.77;16.35;;;;;;;2.99;68.87;100821.91;5180295;28;20410;-45
2021/12/25 03:27:20;;;;;;;24.15;15.55;;;;;;;2.94;68.96;100823.16;5178480;28;20771;-44
2021/12/25 03:29:52;;;;;;;24.05;16.05;;;;;;;2.91;68.67;100823.34;5177161;28;20438;-43
2021/12/25 03:32:25;;;;;;;27.23;15.50;;;;;;;2.84;68.76;100827.31;5183440;28;20771;-43
2021/12/25 03:34:57;;;;;;;24.30;15.32;;;;;;;2.75;68.86;100834.78;5176470;28;21351;-43
2021/12/25 03:37:31;;;;;;;22.92;14.95;;;;;;;2.65;69.17;100828.50;5175773;28;20896;-44
2021/12/25 03:40:06;;;;;;;21.80;14.38;;;;;;;2.72;68.87;100848.03;5175122;28;20506;-44
2021/12/25 03:42:38;;;;;;;22.23;14.05;;;;;;;2.79;68.84;100843.28;5177619;28;20410;-43
2021/12/25 03:45:11;;;;;;;28.98;15.82;;;;;;;2.81;68.65;100848.38;5172823;28;20415;-45
2021/12/25 03:47:46;;;;;;;20.43;13.87;;;;;;;2.77;68.71;100848.56;5175759;28;20829;-45
2021/12/25 03:53:23;;;;;;;19.10;13.52;;;;;;;2.60;68.89;100848.84;5175080;28;20442;-41
2021/12/25 03:58:45;;;;;;;21.77;13.18;;;;;;;2.60;69.03;100856.66;5171738;28;20452;-43
2021/12/25 04:01:32;;;;;;;21.95;12.90;;;;;;;2.51;68.75;100850.25;5178282;28;20437;-43
2021/12/25 04:04:10;;;;;;;16.17;12.10;;;;;;;2.63;68.87;100868.63;5179516;28;20436;-45
2021/12/25 04:06:48;;;;;;;19.65;11.77;;;;;;;2.60;68.56;100880.13;5179068;28;20494;-45
2021/12/25 04:09:25;;;;;;;14.43;11.07;;;;;;;2.57;68.61;100882.94;5167511;28;20519;-44
2021/12/25 04:12:07;;;;;;;18.75;11.30;;;;;;;2.10;68.59;100818.97;5175144;28;24758;-42
2021/12/25 04:14:41;;;;;;;17.40;10.68;;;;;;;2.43;68.94;100881.16;5179099;28;21065;-42
2021/12/25 04:17:13;;;;;;;18.63;10.35;;;;;;;2.46;68.73;100895.78;5172163;28;20436;-43
2021/12/25 04:19:46;;;;;;;13.15;9.15;;;;;;;2.43;68.82;100890.78;5173790;28;20767;-44
2021/12/25 04:22:24;;;;;;;13.60;8.57;;;;;;;2.40;69.07;100906.59;5167215;28;20418;-43
2021/12/25 04:24:58;;;;;;;12.25;7.47;;;;;;;2.37;68.63;100893.75;5182091;28;20413;-42
2021/12/25 04:27:32;;;;;;;10.48;7.00;;;;;;;2.27;68.82;100896.94;5192149;28;20443;-45
2021/12/25 04:30:16;;;;;;;13.02;7.45;;;;;;;2.20;68.97;100913.03;5198129;28;20407;-44
2021/12/25 04:33:25;;;;;;;10.70;7.13;;;;;;;2.16;68.94;100920.19;5193752;28;20952;-44
2021/12/25 04:50:30;;;;;;;10.25;6.13;;;;;;;1.91;68.77;100923.44;5206068;28;21932;-43
2021/12/25 05:01:51;;;;;;;10.18;5.78;;;;;;;1.53;68.59;100878.88;5173912;28;20976;-45
2021/12/25 05:04:27;;;;;;;8.38;5.75;;;;;;;1.82;68.78;100929.22;5204464;28;20850;-44
2021/12/25 05:07:00;;;;;;;11.40;5.37;;;;;;;1.87;68.52;100934.16;5202442;28;21876;-42
2021/12/25 05:09:32;;;;;;;8.65;5.47;;;;;;;1.92;68.52;100932.09;5201182;28;20879;-43
2021/12/25 05:12:06;;;;;;;11.50;6.18;;;;;;;1.87;68.36;100934.16;5199015;28;20787;-42
2021/12/25 05:14:40;;;;;;;6.45;5.47;;;;;;;1.87;68.57;100949.78;5200694;28;20398;-42
2021/12/25 05:17:13;;;;;;;8.03;4.73;;;;;;;1.85;68.55;100939.44;5195239;28;20417;-44
2021/12/25 05:19:45;;;;;;;8.48;5.70;;;;;;;1.83;68.42;100949.97;5205573;28;20427;-43
2021/12/25 05:22:18;;;;;;;8.57;5.70;;;;;;;1.79;68.38;100948.44;5207731;28;20503;-44
2021/12/25 05:24:51;;;;;;;4.78;4.38;;;;;;;1.66;68.66;100951.88;5198500;28;20885;-45
2021/12/25 05:27:24;;;;;;;8.02;4.50;;;;;;;1.55;68.77;100955.13;5197971;28;20512;-43
2021/12/25 05:29:57;;;;;;;6.75;5.07;;;;;;;1.51;68.65;100953.59;5208272;28;20780;-44
2021/12/25 05:32:30;;;;;;;7.88;4.60;;;;;;;1.54;68.62;100953.44;5204486;28;20410;-42
2021/12/25 05:35:02;;;;;;;6.40;5.83;;;;;;;1.50;68.45;100957.97;5200498;28;21029;-43
2021/12/25 05:37:34;;;;;;;8.60;4.45;;;;;;;1.45;68.60;100965.19;5198783;28;20397;-47
2021/12/25 05:40:09;;;;;;;5.65;4.50;;;;;;;1.38;68.38;100954.31;5197788;28;20409;-44
2021/12/25 05:42:41;;;;;;;7.87;4.63;;;;;;;1.32;68.71;100959.03;5190722;28;20416;-46
2021/12/25 05:45:15;;;;;;;8.93;5.18;;;;;;;1.29;68.82;100965.25;5196064;28;20492;-43
2021/12/25 05:47:47;;;;;;;5.97;5.15;;;;;;;1.27;68.34;100968.84;5205170;28;20448;-43
2021/12/25 05:50:20;;;;;;;11.55;4.57;;;;;;;1.24;68.58;100962.09;5194417;28;20407;-43
2021/12/25 05:52:52;;;;;;;7.13;4.77;;;;;;;1.21;68.57;100980.47;5202319;28;20471;-43
2021/12/25 05:55:25;;;;;;;5.20;4.68;;;;;;;1.15;68.26;100965.19;5201103;28;20415;-46
2021/12/25 05:57:57;;;;;;;7.22;4.20;;;;;;;1.13;68.37;100965.28;5201098;28;20413;-43
2021/12/25 06:00:32;;;;;;;5.00;3.72;;;;;;;0.81;68.17;100935.88;5200296;28;20417;-43
2021/12/25 06:03:05;;;;;;;6.50;4.93;;;;;;;0.97;68.38;100989.63;5211074;28;20469;-46
2021/12/25 06:05:38;;;;;;;8.52;4.90;;;;;;;0.89;68.56;100979.63;5199708;28;20418;-43
2021/12/25 06:08:10;;;;;;;5.35;3.80;;;;;;;0.86;68.43;100993.63;5196937;28;20410;-38
2021/12/25 06:10:44;;;;;;;6.65;4.00;;;;;;;0.80;68.16;100983.56;5202277;28;20749;-43
2021/12/25 06:13:19;;;;;;;8.70;4.68;;;;;;;0.71;68.55;100988.44;5200958;28;20501;-43
2021/12/25 06:15:53;;;;;;;7.80;4.43;;;;;;;0.68;68.40;100990.28;5204180;28;20441;-43
2021/12/25 06:18:25;;;;;;;8.15;4.53;;;;;;;0.70;68.29;100998.00;5202942;28;20521;-43
2021/12/25 06:20:58;;;;;;;7.77;4.67;;;;;;;0.69;68.32;100998.94;5201611;28;20504;-45
2021/12/25 06:23:30;;;;;;;4.97;4.47;;;;;;;0.65;68.02;101005.19;5196391;28;20414;-43
2021/12/25 06:26:02;;;;;;;4.60;4.18;;;;;;;0.58;67.98;101003.84;5198732;28;20419;-42
2021/12/25 06:28:35;;;;;;;4.57;3.93;;;;;;;0.56;68.33;101010.88;5209162;28;20428;-45
2021/12/25 06:31:08;;;;;;;5.80;4.18;;;;;;;0.55;68.00;101025.63;5197000;28;20406;-42
2021/12/25 06:33:41;;;;;;;5.37;3.67;;;;;;;0.51;68.25;101012.91;5194801;28;20435;-49
2021/12/25 06:36:13;;;;;;;5.80;4.40;;;;;;;0.41;68.09;101007.34;5200401;28;20507;-42
2021/12/25 06:38:46;;;;;;;4.70;4.20;;;;;;;0.44;68.24;101008.03;5199961;28;20425;-43
2021/12/25 06:41:18;;;;;;;3.97;3.58;;;;;;;0.39;68.05;101001.38;5201004;28;20521;-46
2021/12/25 06:43:50;;;;;;;5.07;4.25;;;;;;;0.30;68.21;101000.09;5199019;28;20786;-45
2021/12/25 06:46:24;;;;;;;6.33;3.43;;;;;;;0.34;68.01;101016.38;5202124;28;20417;-44
2021/12/25 06:48:56;;;;;;;4.63;4.07;;;;;;;0.30;68.35;101023.47;5200920;28;20893;-43
2021/12/25 06:51:29;;;;;;;8.88;4.95;;;;;;;0.26;67.79;101013.34;5201346;28;20519;-43
2021/12/25 06:54:01;;;;;;;6.25;3.90;;;;;;;0.30;67.85;101026.06;5201367;28;20416;-42
2021/12/25 06:56:34;;;;;;;5.80;4.20;;;;;;;0.25;67.80;101025.50;5197714;28;20455;-43
2021/12/25 06:59:06;;;;;;;4.80;3.22;;;;;;;0.22;68.05;101023.06;5202390;28;20513;-42
2021/12/25 07:01:41;;;;;;;4.27;3.87;;;;;;;0.10;68.10;101028.88;5197289;28;20428;-43
2021/12/25 07:04:13;;;;;;;5.47;4.95;;;;;;;0.11;67.92;101025.34;5197245;28;20426;-44
2021/12/25 07:06:45;;;;;;;5.50;3.70;;;;;;;0.12;67.85;101035.66;5197200;28;20421;-42
2021/12/25 07:09:18;;;;;;;6.35;4.90;;;;;;;0.06;68.20;101042.91;5200411;28;20880;-44
2021/12/25 07:11:50;;;;;;;6.13;3.67;;;;;;;-0.01;67.98;101039.78;5197619;28;20787;-41
2021/12/25 07:14:22;;;;;;;2.97;2.78;;;;;;;-0.01;67.89;101035.44;5196541;28;20431;-42
2021/12/25 07:16:56;;;;;;;7.68;4.63;;;;;;;-0.07;68.07;101048.72;5200013;28;20436;-47
2021/12/25 07:19:28;;;;;;;5.85;4.18;;;;;;;-0.10;67.93;101038.50;5197050;28;20419;-42
2021/12/25 07:22:02;;;;;;;3.95;3.65;;;;;;;-0.24;67.83;101034.00;5196239;28;20869;-43
2021/12/25 07:24:35;;;;;;;4.05;3.65;;;;;;;-0.27;68.06;101035.91;5197179;28;20508;-42
2021/12/25 07:27:07;;;;;;;4.23;3.73;;;;;;;-0.17;67.98;101078.66;5200800;28;20561;-43
2021/12/25 07:29:40;;;;;;;5.28;4.65;;;;;;;-0.22;67.88;101067.66;5193867;28;20748;-46
2021/12/25 07:32:13;;;;;;;3.50;3.22;;;;;;;-0.25;67.84;101058.28;5191591;28;20929;-45
2021/12/25 07:34:47;;;;;;;4.28;3.60;;;;;;;-0.24;67.85;101062.53;5202376;28;20407;-43
2021/12/25 07:37:20;;;;;;;4.30;3.80;;;;;;;-0.24;67.78;101061.72;5196921;28;20417;-42
2021/12/25 07:39:52;;;;;;;4.10;3.80;;;;;;;-0.20;67.86;101068.41;5203178;28;20433;-42
2021/12/25 07:42:25;;;;;;;4.38;3.90;;;;;;;-0.19;67.78;101074.44;5192530;28;20420;-42
2021/12/25 07:45:03;;;;;;;4.60;4.05;;;;;;;-0.25;67.61;101071.25;5198499;28;20423;-43
2021/12/25 07:47:41;;;;;;;3.75;3.45;;;;;;;-0.30;67.82;101075.81;5192850;28;20418;-43
2021/12/25 07:50:14;;;;;;;3.80;3.50;;;;;;;-0.32;67.64;101074.22;5194279;28;20407;-45
2021/12/25 07:52:46;;;;;;;5.40;4.00;;;;;;;-0.34;67.79;101078.63;5196134;28;20470;-42
2021/12/25 07:55:19;;;;;;;4.82;3.50;;;;;;;-0.44;67.70;101064.41;5196068;28;20920;-43
2021/12/25 07:57:52;;;;;;;4.80;4.40;;;;;;;-0.36;67.90;101078.72;5200681;28;20480;-42
2021/12/25 08:00:24;;;;;;;4.57;4.18;;;;;;;-0.40;67.45;101082.38;5197729;28;20425;-43
2021/12/25 08:02:58;;;;;;;5.07;4.38;;;;;;;-0.34;67.34;101086.41;5208973;28;20409;-43
2021/12/25 08:05:31;;;;;;;4.55;4.15;;;;;;;-0.33;67.63;101082.91;5196919;28;30778;-43
2021/12/25 08:08:06;;;;;;;4.90;4.07;;;;;;;-0.29;67.61;101080.09;5194404;28;20438;-46
2021/12/25 08:10:39;;;;;;;5.53;4.28;;;;;;;-0.29;67.46;101084.44;5198284;28;20793;-43
2021/12/25 08:13:13;;;;;;;4.75;4.40;;;;;;;-0.28;67.37;101092.16;5195072;28;20505;-50
2021/12/25 08:15:46;;;;;;;4.70;4.30;;;;;;;-0.28;67.15;101076.59;5201942;28;20413;-43
2021/12/25 08:18:20;;;;;;;4.50;4.10;;;;;;;-0.33;67.45;101077.72;5206685;28;20854;-43
2021/12/25 08:20:53;;;;;;;4.50;3.90;;;;;;;-0.30;67.37;101085.38;5192650;28;20454;-43
2021/12/25 08:23:25;;;;;;;4.85;4.05;;;;;;;-0.26;67.20;101094.69;5193783;28;20755;-45
2021/12/25 08:25:58;;;;;;;5.00;4.53;;;;;;;-0.29;67.11;101100.00;5192597;28;20427;-43
2021/12/25 08:28:30;;;;;;;3.93;3.73;;;;;;;-0.28;67.55;101101.69;5199283;28;20433;-44
2021/12/25 08:31:04;;;;;;;5.53;4.72;;;;;;;-0.26;67.03;101099.88;5200040;28;20774;-43
2021/12/25 08:33:38;;;;;;;4.03;3.63;;;;;;;-0.29;67.37;101110.41;5201932;28;20415;-43
2021/12/25 08:36:10;;;;;;;5.43;4.83;;;;;;;-0.16;67.18;101106.28;5202572;28;20427;-43
2021/12/25 08:38:43;;;;;;;5.53;4.75;;;;;;;-0.20;67.09;101107.34;5188198;28;20403;-44
2021/12/25 08:41:15;;;;;;;5.37;4.87;;;;;;;-0.09;67.00;101123.25;5202839;28;20496;-45
2021/12/25 08:43:49;;;;;;;6.47;5.55;;;;;;;-0.07;66.86;101126.59;5201606;28;20432;-43
2021/12/25 08:46:41;;;;;;;6.25;5.25;;;;;;;-0.10;67.01;101113.78;5197225;28;20510;-42
2021/12/25 08:49:16;;;;;;;8.60;5.70;;;;;;;0.02;66.92;101134.88;5201107;28;20820;-43
2021/12/25 08:51:48;;;;;;;7.13;5.07;;;;;;;0.04;67.09;101138.25;5197157;28;20484;-42
2021/12/25 08:54:21;;;;;;;6.43;5.60;;;;;;;0.08;67.14;101134.56;5208913;28;20414;-43
2021/12/25 08:56:53;;;;;;;7.03;5.25;;;;;;;0.04;67.13;101125.25;5208320;28;20913;-42
2021/12/25 08:59:26;;;;;;;5.55;4.95;;;;;;;0.11;66.78;101140.47;5200617;28;20424;-44
2021/12/25 09:01:59;;;;;;;7.07;5.43;;;;;;;0.14;66.99;101139.47;5206687;28;20427;-42
2021/12/25 09:04:33;;;;;;;8.00;6.45;;;;;;;-0.28;66.82;101070.53;5209870;28;20441;-46
2021/12/25 09:07:06;;;;;;;10.48;6.38;;;;;;;0.19;66.68;101147.88;5193430;28;20422;-42
2021/12/25 09:09:39;;;;;;;7.18;5.20;;;;;;;0.25;66.83;101149.31;5202975;28;20413;-43
2021/12/25 09:12:15;;;;;;;10.38;5.78;;;;;;;0.23;66.65;101175.38;5187327;28;20919;-47
2021/12/25 09:14:47;;;;;;;6.80;5.18;;;;;;;0.21;66.61;101148.63;5194255;28;20403;-43
2021/12/25 09:17:20;;;;;;;9.43;5.93;;;;;;;0.25;66.50;101151.91;5205782;28;20414;-42
2021/12/25 09:19:54;;;;;;;6.43;5.03;;;;;;;0.30;66.66;101166.34;5190439;28;20415;-42
2021/12/25 09:22:26;;;;;;;8.02;4.93;;;;;;;0.30;66.61;101166.34;5198300;28;20441;-46
2021/12/25 09:24:58;;;;;;;8.67;5.43;;;;;;;0.28;66.65;101162.16;5195043;28;20518;-44
2021/12/25 09:27:31;;;;;;;10.10;6.60;;;;;;;0.22;66.64;101163.31;5190545;28;22233;-43
2021/12/25 09:30:05;;;;;;;8.57;5.78;;;;;;;0.22;66.60;101152.94;5199535;28;20486;-43
2021/12/25 09:32:38;;;;;;;9.32;6.45;;;;;;;0.25;66.57;101160.56;5195710;28;20457;-44
2021/12/25 09:35:12;;;;;;;13.90;7.85;;;;;;;0.21;66.01;101148.63;5196460;28;20510;-43
2021/12/25 09:37:45;;;;;;;10.65;6.60;;;;;;;0.27;66.34;101169.09;5196851;28;20478;-43
2021/12/25 09:40:17;;;;;;;11.97;6.63;;;;;;;0.34;66.21;101173.09;5191519;28;20617;-42
2021/12/25 09:42:50;;;;;;;10.65;6.57;;;;;;;0.48;66.02;101168.97;5188815;28;20758;-42
2021/12/25 09:45:23;;;;;;;14.57;7.95;;;;;;;0.53;65.75;101182.56;5202796;28;20492;-42
2021/12/25 09:47:56;;;;;;;11.40;6.38;;;;;;;0.43;65.47;101182.19;5192644;28;20427;-43
2021/12/25 09:50:30;;;;;;;9.10;5.93;;;;;;;0.41;65.36;101189.22;5182106;28;20417;-42
2021/12/25 09:53:13;;;;;;;12.77;7.07;;;;;;;0.32;65.67;101174.94;5193684;28;20764;-43
2021/12/25 09:55:46;;;;;;;8.88;6.18;;;;;;;0.35;65.57;101190.38;5198921;28;20770;-49
2021/12/25 09:58:18;;;;;;;8.70;6.07;;;;;;;0.30;65.54;101192.34;5199280;28;20423;-43
2021/12/25 10:00:53;;;;;;;8.75;5.78;;;;;;;0.36;65.00;101194.63;5197628;28;20498;-42
2021/12/25 10:03:30;;;;;;;6.80;4.30;;;;;;;0.34;64.96;101198.22;5195567;28;20782;-43
2021/12/25 10:06:04;;;;;;;5.18;3.92;;;;;;;0.32;65.14;101205.28;5204140;28;20437;-42
2021/12/25 10:08:39;;;;;;;4.05;3.30;;;;;;;0.32;65.02;101192.28;5190745;28;20430;-42
2021/12/25 10:11:12;;;;;;;3.20;3.00;;;;;;;0.41;65.01;101197.84;5187395;28;20852;-46
2021/12/25 10:13:46;;;;;;;3.45;2.85;;;;;;;0.35;64.66;101190.38;5196270;28;20486;-44
2021/12/25 10:16:24;;;;;;;3.85;3.55;;;;;;;0.41;64.24;101200.47;5192395;28;20408;-43
2021/12/25 10:19:14;;;;;;;3.70;3.40;;;;;;;0.36;64.29;101212.81;5187354;28;20411;-43
2021/12/25 10:21:49;;;;;;;4.85;3.45;;;;;;;0.23;64.46;101183.19;5188127;28;20409;-42
2021/12/25 10:24:27;;;;;;;3.80;3.00;;;;;;;0.31;64.33;101199.22;5187685;28;20462;-44
2021/12/25 10:27:13;;;;;;;3.53;2.70;;;;;;;0.21;64.30;101188.44;5188914;28;20795;-43
2021/12/25 10:29:46;;;;;;;4.20;3.00;;;;;;;0.32;64.05;101200.06;5181169;28;20411;-44
2021/12/25 10:32:22;;;;;;;4.28;3.85;;;;;;;0.32;63.82;101203.50;5180875;28;20419;-42
2021/12/25 10:34:55;;;;;;;3.00;2.80;;;;;;;0.31;63.69;101196.63;5178320;28;20507;-42
2021/12/25 10:37:29;;;;;;;3.95;2.78;;;;;;;0.32;63.59;101180.13;5179571;28;20416;-42
2021/12/25 10:40:02;;;;;;;3.88;3.50;;;;;;;0.36;63.49;101176.44;5186594;28;20922;-42
2021/12/25 10:42:35;;;;;;;2.90;2.70;;;;;;;0.45;63.02;101181.19;5186130;28;20755;-42
2021/12/25 10:45:15;;;;;;;3.58;3.28;;;;;;;0.46;63.17;101176.81;5192305;28;20435;-42
2021/12/25 10:47:59;;;;;;;4.75;3.10;;;;;;;0.47;63.18;101167.31;5183983;28;20403;-42
2021/12/25 10:50:41;;;;;;;4.53;4.23;;;;;;;0.55;62.69;101167.75;5189587;28;23362;-43
2021/12/25 10:53:26;;;;;;;4.85;2.95;;;;;;;0.54;62.62;101163.47;5182051;28;20415;-42
2021/12/25 10:56:08;;;;;;;3.38;3.08;;;;;;;0.56;62.87;101178.06;5185319;28;20425;-44
2021/12/25 10:58:42;;;;;;;3.72;2.65;;;;;;;0.59;62.53;101167.53;5182121;28;20424;-42
2021/12/25 11:01:17;;;;;;;3.15;2.85;;;;;;;0.58;62.37;101158.03;5175635;28;20763;-42
2021/12/25 11:03:52;;;;;;;3.23;2.93;;;;;;;0.64;62.26;101162.06;5189814;28;20419;-42
2021/12/25 11:06:24;;;;;;;2.95;2.72;;;;;;;0.63;62.20;101157.81;5188708;28;20547;-42
2021/12/25 11:09:00;;;;;;;3.58;3.05;;;;;;;0.65;62.01;101166.34;5189692;28;20427;-42
2021/12/25 11:11:32;;;;;;;3.53;3.25;;;;;;;0.64;61.66;101149.06;5182549;28;20843;-41
2021/12/25 11:14:07;;;;;;;3.38;3.08;;;;;;;0.69;61.60;101149.69;5190368;28;20419;-42
2021/12/25 11:16:40;;;;;;;3.15;2.85;;;;;;;0.68;61.25;101161.00;5172676;28;20952;-43
2021/12/25 11:19:17;;;;;;;2.90;2.70;;;;;;;0.70;61.20;101151.38;5184949;28;20446;-46
2021/12/25 11:21:59;;;;;;;4.43;2.90;;;;;;;0.70;60.96;101146.16;5188200;28;20492;-43
2021/12/25 11:24:38;;;;;;;4.85;3.17;;;;;;;0.71;61.15;101166.03;5192215;28;20378;-42
2021/12/25 11:27:10;;;;;;;5.38;3.10;;;;;;;0.68;60.62;101156.66;5200333;28;20411;-43
2021/12/25 11:29:43;;;;;;;2.90;2.70;;;;;;;0.75;60.73;101156.34;5195626;28;20595;-47
2021/12/25 11:32:18;;;;;;;3.03;2.80;;;;;;;0.78;60.72;101151.81;5191113;28;20515;-42
2021/12/25 11:34:51;;;;;;;2.90;2.70;;;;;;;0.83;60.69;101157.59;5199812;28;20422;-42
2021/12/25 11:37:24;;;;;;;3.83;3.53;;;;;;;0.82;60.16;101157.69;5196553;28;20425;-42
2021/12/25 11:39:58;;;;;;;3.67;3.38;;;;;;;0.88;60.42;101158.22;5204030;28;20406;-43
2021/12/25 11:42:30;;;;;;;2.58;2.45;;;;;;;0.88;60.07;101147.81;5202407;28;20426;-42
2021/12/25 11:45:14;;;;;;;3.05;2.78;;;;;;;0.87;59.98;101156.53;5207152;28;20758;-44
2021/12/25 11:47:51;;;;;;;3.00;2.80;;;;;;;0.50;60.05;101104.78;5201343;28;20471;-42
2021/12/25 11:50:37;;;;;;;6.28;3.00;;;;;;;0.81;59.62;101149.06;5201424;28;20821;-43
2021/12/25 11:53:18;;;;;;;3.97;2.63;;;;;;;0.86;59.55;101164.41;5201055;28;20774;-43
2021/12/25 11:56:19;;;;;;;2.60;2.50;;;;;;;0.94;59.51;101161.44;5200506;28;20902;-43
2021/12/25 11:58:54;;;;;;;2.58;2.38;;;;;;;0.99;59.33;101154.19;5199268;28;20502;-42
2021/12/25 12:01:36;;;;;;;3.15;2.85;;;;;;;1.06;58.81;101158.19;5197317;28;20746;-42
2021/12/25 12:04:18;;;;;;;3.08;2.67;;;;;;;1.12;58.84;101143.09;5198859;28;20912;-42
2021/12/25 12:07:09;;;;;;;2.53;2.33;;;;;;;1.14;58.91;101143.81;5200654;28;20414;-42
2021/12/25 12:10:00;;;;;;;5.15;2.95;;;;;;;1.06;58.49;101156.41;5192319;28;20499;-43
2021/12/25 12:12:34;;;;;;;3.53;3.33;;;;;;;1.05;58.48;101148.69;5190814;28;20483;-43
2021/12/25 12:15:14;;;;;;;2.72;2.63;;;;;;;1.04;58.60;101136.59;5192714;28;20517;-42
2021/12/25 12:17:47;;;;;;;2.67;2.50;;;;;;;1.01;58.41;101148.00;5188770;28;20408;-42
2021/12/25 12:20:40;;;;;;;3.13;2.88;;;;;;;1.05;58.11;101154.72;5204888;28;20880;-42
2021/12/25 12:23:38;;;;;;;2.67;2.47;;;;;;;1.07;57.94;101152.06;5199030;28;20450;-47
2021/12/25 12:26:13;;;;;;;2.60;2.25;;;;;;;1.09;57.99;101161.47;5200221;28;20416;-43
2021/12/25 12:28:52;;;;;;;3.10;2.83;;;;;;;1.02;57.90;101143.63;5212557;28;20487;-42
2021/12/25 12:31:41;;;;;;;4.45;2.90;;;;;;;1.12;57.65;101150.06;5196804;28;20552;-43
2021/12/25 12:34:36;;;;;;;4.10;3.70;;;;;;;1.12;57.36;101165.66;5195151;28;20528;-44
2021/12/25 12:37:32;;;;;;;4.45;4.05;;;;;;;1.06;57.49;101155.59;5215574;28;20735;-43
2021/12/25 12:40:27;;;;;;;5.43;3.27;;;;;;;1.08;57.18;101153.72;5189902;28;20931;-42
2021/12/25 12:43:02;;;;;;;5.40;4.20;;;;;;;1.10;57.27;101150.13;5186227;28;20822;-41
2021/12/25 12:45:38;;;;;;;5.32;3.50;;;;;;;1.11;57.05;101150.97;5193267;28;20434;-45
2021/12/25 12:48:21;;;;;;;5.82;4.68;;;;;;;1.17;57.14;101150.63;5196920;28;20876;-42